Aérodrome :
LOGIN :

S'inscrire | Disclaimer

   EN    FR    IT 

 










Légende :    VFR   VFR Marginal   IFR   IFR Intensif   IFR Très Intensif
Visi : 
Plafond : 
>= 8 km
>= 3000ft
5 à 8 km
1000 à 3000 ft
1500m à 5 km
500 à 1000 ft
800 à 1500m
200 à 500 ft
< 800m
< 200 ft
Symboles :   Orages  Brouillard  Fortes neiges  Fortes précipitations  Vent > 20 kt
SIGMETs :   Divers  Orages  Givrage  Turbulence  Onde Orograph.  Cendres Volcan.







- Altitude de l'aérodrome : 26 ft
- Code IATA : BIA
- Voir les cartes d'approche


LFKB - Bastia

DERNIER METAR :
  • 192000Z 16008KT 9999 FEW015 SCT025 BKN033 20/17 Q1016 NOSIG

METARs EXPIRÉS :
  • 191930Z 16010KT 9999 FEW015 SCT025 BKN033 20/17 Q1016 NOSIG
  • 191900Z 16010KT 9999 FEW015 SCT025 BKN046 20/17 Q1016 NOSIG
  • 191830Z 16012KT 9999 FEW015 SCT025 BKN230 20/17 Q1016 NOSIG
  • 191800Z 15012KT 9999 SCT015 BKN025 BKN230 20/17 Q1015 NOSIG
  • 191730Z 15010KT 9999 SCT015 SCT025 BKN230 20/17 Q1015 NOSIG

TAF TAF LFKB
Valide du 19 à 15h jusqu'au 20 à 15h UTC


191400Z 1915/2015 14015KT 9999 SCT015 SCT020
BECMG 1916/1918 BKN012
PROB30
TEMPO 1918/2012 SHRA
PROB40
TEMPO 2000/2009 RA
BECMG 1919/1922 21006KT
BECMG 2007/2010 14015KT TX23/2013Z TN14/2004Z
ATIS : +33 4 95 59 19 40
Pas de NOTAMs connus pour ce terrain.
1 SIGMET publié pour la FIR Marseille (LFMM) :
 
Orages noyés dans la masse
LFMM SIGMET 14 VALID 191900/192100 LFPW
LFMM MARSEILLE FIR/UIR EMBD TS OBS WI N3900 E00700 - N3900 E00430 - N4200 E00430 - N4215 E00230 - N4345 E00245 - N4345 E00300 - N4115 E00600 TOP FL370 STNR NC=



MET'MAP, la Météo Aéronautique d'un coup d'oeil ! - Copyright ORBIFLY Décembre 2007 - Disclaimer

ORBIFLY MET'MAP TEAM :

Programmation & Développement : Alexandra Zaïnal
Conception & Développement : Baudouin d'Aumeries
Co-Programmation & Développement : Marc-Olivier Méhu
Soutien technique & logistique : Manuel Goepfert

Contact : metmap@orbifly.com




SOURCES & CREDITS :

   NOAA